sensor_id;sensor_type;location;lat;lon;timestamp;P1;durP1;ratioP1;P2;durP2;ratioP2
1747;SDS011;871;47.034;15.394;2023-02-11T05:02:32;39.53;;;8.40;;
1747;SDS011;871;47.034;15.394;2023-02-11T05:04:58;46.22;;;9.18;;
1747;SDS011;871;47.034;15.394;2023-02-11T05:07:24;43.17;;;9.23;;
1747;SDS011;871;47.034;15.394;2023-02-11T05:09:50;51.10;;;11.00;;
1747;SDS011;871;47.034;15.394;2023-02-11T05:12:16;53.00;;;11.07;;
1747;SDS011;871;47.034;15.394;2023-02-11T05:14:42;48.50;;;12.70;;
1747;SDS011;871;47.034;15.394;2023-02-11T05:17:08;48.60;;;11.05;;
1747;SDS011;871;47.034;15.394;2023-02-11T05:19:34;53.30;;;12.30;;
1747;SDS011;871;47.034;15.394;2023-02-11T05:22:00;50.50;;;10.38;;
1747;SDS011;871;47.034;15.394;2023-02-11T05:24:26;51.60;;;11.70;;
1747;SDS011;871;47.034;15.394;2023-02-11T05:26:52;56.63;;;11.80;;
1747;SDS011;871;47.034;15.394;2023-02-11T05:29:18;49.22;;;12.60;;
1747;SDS011;871;47.034;15.394;2023-02-11T05:31:44;65.75;;;16.02;;
1747;SDS011;871;47.034;15.394;2023-02-11T05:34:10;56.63;;;10.90;;
1747;SDS011;871;47.034;15.394;2023-02-11T05:36:36;56.33;;;14.05;;
1747;SDS011;871;47.034;15.394;2023-02-11T05:39:02;51.90;;;13.68;;
1747;SDS011;871;47.034;15.394;2023-02-11T05:41:28;56.15;;;14.90;;
1747;SDS011;871;47.034;15.394;2023-02-11T05:43:54;53.70;;;12.43;;
1747;SDS011;871;47.034;15.394;2023-02-11T05:46:20;60.35;;;15.38;;
1747;SDS011;871;47.034;15.394;2023-02-11T05:48:46;63.95;;;13.75;;
1747;SDS011;871;47.034;15.394;2023-02-11T05:51:12;52.13;;;13.10;;
1747;SDS011;871;47.034;15.394;2023-02-11T05:53:40;59.85;;;11.52;;
1747;SDS011;871;47.034;15.394;2023-02-11T05:56:06;47.13;;;10.73;;
1747;SDS011;871;47.034;15.394;2023-02-11T05:58:32;49.88;;;11.13;;
1747;SDS011;871;47.034;15.394;2023-02-11T06:00:58;52.80;;;13.40;;
1747;SDS011;871;47.034;15.394;2023-02-11T06:03:24;48.85;;;9.55;;
1747;SDS011;871;47.034;15.394;2023-02-11T06:05:50;50.90;;;10.50;;
1747;SDS011;871;47.034;15.394;2023-02-11T06:08:16;54.50;;;12.00;;
1747;SDS011;871;47.034;15.394;2023-02-11T06:10:45;57.55;;;11.85;;
1747;SDS011;871;47.034;15.394;2023-02-11T06:13:11;57.80;;;15.43;;
1747;SDS011;871;47.034;15.394;2023-02-11T06:15:38;53.10;;;14.20;;
1747;SDS011;871;47.034;15.394;2023-02-11T06:18:04;66.97;;;15.70;;
1747;SDS011;871;47.034;15.394;2023-02-11T06:20:30;56.88;;;13.18;;
1747;SDS011;871;47.034;15.394;2023-02-11T06:22:56;63.25;;;14.82;;
1747;SDS011;871;47.034;15.394;2023-02-11T06:25:22;59.10;;;16.33;;
1747;SDS011;871;47.034;15.394;2023-02-11T06:27:48;60.90;;;13.23;;
1747;SDS011;871;47.034;15.394;2023-02-11T06:30:14;61.65;;;15.10;;
1747;SDS011;871;47.034;15.394;2023-02-11T06:32:40;66.70;;;15.75;;
1747;SDS011;871;47.034;15.394;2023-02-11T06:35:07;59.65;;;15.93;;
1747;SDS011;871;47.034;15.394;2023-02-11T06:37:33;59.45;;;15.55;;
1747;SDS011;871;47.034;15.394;2023-02-11T06:39:59;63.97;;;16.58;;
1747;SDS011;871;47.034;15.394;2023-02-11T06:42:25;65.40;;;17.05;;
1747;SDS011;871;47.034;15.394;2023-02-11T06:44:51;62.90;;;16.50;;
1747;SDS011;871;47.034;15.394;2023-02-11T06:47:17;68.53;;;16.98;;
1747;SDS011;871;47.034;15.394;2023-02-11T06:49:44;62.75;;;18.35;;
1747;SDS011;871;47.034;15.394;2023-02-11T06:52:10;65.45;;;17.00;;
1747;SDS011;871;47.034;15.394;2023-02-11T06:54:36;69.75;;;19.90;;
1747;SDS011;871;47.034;15.394;2023-02-11T06:57:02;66.93;;;17.58;;
1747;SDS011;871;47.034;15.394;2023-02-11T06:59:28;65.15;;;16.70;;
1747;SDS011;871;47.034;15.394;2023-02-11T07:01:54;84.90;;;20.40;;
1747;SDS011;871;47.034;15.394;2023-02-11T07:04:21;75.68;;;17.70;;
1747;SDS011;871;47.034;15.394;2023-02-11T07:06:47;68.70;;;19.35;;
1747;SDS011;871;47.034;15.394;2023-02-11T07:09:13;76.68;;;23.30;;
1747;SDS011;871;47.034;15.394;2023-02-11T07:11:39;87.05;;;21.23;;
1747;SDS011;871;47.034;15.394;2023-02-11T07:14:06;79.80;;;23.77;;
1747;SDS011;871;47.034;15.394;2023-02-11T07:16:32;89.15;;;27.30;;
1747;SDS011;871;47.034;15.394;2023-02-11T07:18:59;84.57;;;27.15;;
1747;SDS011;871;47.034;15.394;2023-02-11T07:21:25;79.00;;;24.83;;
1747;SDS011;871;47.034;15.394;2023-02-11T07:23:51;71.82;;;20.42;;
1747;SDS011;871;47.034;15.394;2023-02-11T07:26:18;75.40;;;20.27;;
1747;SDS011;871;47.034;15.394;2023-02-11T07:28:46;67.45;;;20.02;;
1747;SDS011;871;47.034;15.394;2023-02-11T07:31:17;73.95;;;21.08;;
1747;SDS011;871;47.034;15.394;2023-02-11T07:33:43;69.10;;;20.60;;
1747;SDS011;871;47.034;15.394;2023-02-11T07:36:13;76.30;;;21.33;;
1747;SDS011;871;47.034;15.394;2023-02-11T07:38:39;68.13;;;18.63;;
1747;SDS011;871;47.034;15.394;2023-02-11T07:41:07;71.13;;;21.30;;
1747;SDS011;871;47.034;15.394;2023-02-11T07:43:33;71.55;;;20.92;;
1747;SDS011;871;47.034;15.394;2023-02-11T07:46:03;69.32;;;21.77;;
1747;SDS011;871;47.034;15.394;2023-02-11T07:48:29;68.88;;;20.52;;
1747;SDS011;871;47.034;15.394;2023-02-11T07:51:03;68.93;;;21.40;;
1747;SDS011;871;47.034;15.394;2023-02-11T07:53:29;68.50;;;19.73;;
1747;SDS011;871;47.034;15.394;2023-02-11T07:55:55;68.95;;;20.55;;
1747;SDS011;871;47.034;15.394;2023-02-11T07:58:21;73.60;;;22.40;;
1747;SDS011;871;47.034;15.394;2023-02-11T08:00:47;84.07;;;21.73;;
1747;SDS011;871;47.034;15.394;2023-02-11T08:03:13;73.50;;;20.77;;
1747;SDS011;871;47.034;15.394;2023-02-11T08:05:39;76.65;;;20.08;;
1747;SDS011;871;47.034;15.394;2023-02-11T08:08:06;66.10;;;18.38;;
1747;SDS011;871;47.034;15.394;2023-02-11T08:10:32;66.47;;;20.02;;
1747;SDS011;871;47.034;15.394;2023-02-11T08:12:58;67.75;;;21.20;;
1747;SDS011;871;47.034;15.394;2023-02-11T08:15:24;73.97;;;22.25;;
1747;SDS011;871;47.034;15.394;2023-02-11T08:17:50;78.97;;;24.05;;
1747;SDS011;871;47.034;15.394;2023-02-11T08:20:16;72.22;;;23.40;;
1747;SDS011;871;47.034;15.394;2023-02-11T08:22:42;75.15;;;22.83;;
1747;SDS011;871;47.034;15.394;2023-02-11T08:25:08;68.63;;;20.75;;
1747;SDS011;871;47.034;15.394;2023-02-11T08:27:34;81.07;;;26.80;;
1747;SDS011;871;47.034;15.394;2023-02-11T08:30:00;69.40;;;22.05;;
1747;SDS011;871;47.034;15.394;2023-02-11T08:32:26;83.07;;;22.27;;
1747;SDS011;871;47.034;15.394;2023-02-11T08:34:53;77.70;;;22.55;;
1747;SDS011;871;47.034;15.394;2023-02-11T08:37:19;67.68;;;19.92;;
1747;SDS011;871;47.034;15.394;2023-02-11T08:39:46;68.20;;;21.13;;
1747;SDS011;871;47.034;15.394;2023-02-11T08:42:13;85.90;;;21.58;;
1747;SDS011;871;47.034;15.394;2023-02-11T08:44:42;68.82;;;20.88;;
1747;SDS011;871;47.034;15.394;2023-02-11T08:47:08;67.32;;;23.33;;
1747;SDS011;871;47.034;15.394;2023-02-11T08:49:34;83.55;;;24.08;;
1747;SDS011;871;47.034;15.394;2023-02-11T08:52:00;74.35;;;23.17;;
1747;SDS011;871;47.034;15.394;2023-02-11T08:54:31;72.53;;;23.13;;
1747;SDS011;871;47.034;15.394;2023-02-11T08:56:57;81.00;;;23.20;;
1747;SDS011;871;47.034;15.394;2023-02-11T08:59:24;66.55;;;20.83;;
1747;SDS011;871;47.034;15.394;2023-02-11T09:01:50;73.00;;;22.27;;
1747;SDS011;871;47.034;15.394;2023-02-11T09:04:16;70.53;;;20.17;;
1747;SDS011;871;47.034;15.394;2023-02-11T09:06:44;73.53;;;20.35;;
1747;SDS011;871;47.034;15.394;2023-02-11T09:09:11;64.07;;;20.40;;
1747;SDS011;871;47.034;15.394;2023-02-11T09:11:38;67.72;;;19.55;;
1747;SDS011;871;47.034;15.394;2023-02-11T09:14:04;62.72;;;17.98;;
1747;SDS011;871;47.034;15.394;2023-02-11T09:16:32;70.30;;;19.83;;
1747;SDS011;871;47.034;15.394;2023-02-11T09:18:59;76.82;;;22.08;;
1747;SDS011;871;47.034;15.394;2023-02-11T09:21:25;84.95;;;20.52;;
1747;SDS011;871;47.034;15.394;2023-02-11T09:23:52;67.40;;;19.17;;
1747;SDS011;871;47.034;15.394;2023-02-11T09:28:44;70.40;;;18.40;;
1747;SDS011;871;47.034;15.394;2023-02-11T09:31:11;66.68;;;18.75;;
1747;SDS011;871;47.034;15.394;2023-02-11T09:33:39;60.25;;;16.83;;
1747;SDS011;871;47.034;15.394;2023-02-11T09:36:12;57.17;;;15.80;;
1747;SDS011;871;47.034;15.394;2023-02-11T09:38:38;60.35;;;16.80;;
1747;SDS011;871;47.034;15.394;2023-02-11T09:41:04;72.57;;;17.65;;
1747;SDS011;871;47.034;15.394;2023-02-11T09:43:36;59.38;;;17.38;;
1747;SDS011;871;47.034;15.394;2023-02-11T09:46:07;54.47;;;14.38;;
1747;SDS011;871;47.034;15.394;2023-02-11T09:48:40;64.70;;;18.33;;
1747;SDS011;871;47.034;15.394;2023-02-11T09:53:55;61.70;;;17.35;;
1747;SDS011;871;47.034;15.394;2023-02-11T09:56:22;60.63;;;17.08;;
1747;SDS011;871;47.034;15.394;2023-02-11T09:58:49;58.13;;;16.85;;
1747;SDS011;871;47.034;15.394;2023-02-11T10:09:01;58.20;;;16.20;;
1747;SDS011;871;47.034;15.394;2023-02-11T10:22:09;57.47;;;15.57;;
1747;SDS011;871;47.034;15.394;2023-02-11T10:24:36;60.00;;;15.93;;
1747;SDS011;871;47.034;15.394;2023-02-11T10:27:07;56.20;;;14.70;;
1747;SDS011;871;47.034;15.394;2023-02-11T10:29:39;57.93;;;14.37;;
1747;SDS011;871;47.034;15.394;2023-02-11T10:32:12;55.57;;;15.77;;
1747;SDS011;871;47.034;15.394;2023-02-11T10:34:41;59.87;;;16.13;;
1747;SDS011;871;47.034;15.394;2023-02-11T10:37:08;56.17;;;14.70;;
1747;SDS011;871;47.034;15.394;2023-02-11T10:39:34;59.57;;;15.00;;
1747;SDS011;871;47.034;15.394;2023-02-11T10:42:04;61.50;;;15.23;;
1747;SDS011;871;47.034;15.394;2023-02-11T10:44:31;55.13;;;14.93;;
1747;SDS011;871;47.034;15.394;2023-02-11T10:47:00;63.73;;;15.03;;
1747;SDS011;871;47.034;15.394;2023-02-11T10:49:43;59.23;;;14.70;;
1747;SDS011;871;47.034;15.394;2023-02-11T10:52:28;53.57;;;14.23;;
1747;SDS011;871;47.034;15.394;2023-02-11T10:55:02;50.63;;;12.47;;
1747;SDS011;871;47.034;15.394;2023-02-11T10:57:36;50.00;;;11.93;;
1747;SDS011;871;47.034;15.394;2023-02-11T11:00:45;52.97;;;13.70;;
1747;SDS011;871;47.034;15.394;2023-02-11T11:02:56;60.60;;;14.17;;
1747;SDS011;871;47.034;15.394;2023-02-11T11:05:30;53.65;;;11.35;;
1747;SDS011;871;47.034;15.394;2023-02-11T11:08:06;60.83;;;14.43;;
1747;SDS011;871;47.034;15.394;2023-02-11T11:10:46;50.53;;;12.40;;
1747;SDS011;871;47.034;15.394;2023-02-11T11:15:48;54.17;;;11.83;;
1747;SDS011;871;47.034;15.394;2023-02-11T11:18:31;51.33;;;13.00;;
1747;SDS011;871;47.034;15.394;2023-02-11T11:20:58;51.80;;;10.87;;
1747;SDS011;871;47.034;15.394;2023-02-11T11:23:24;48.27;;;10.20;;
1747;SDS011;871;47.034;15.394;2023-02-11T11:28:57;47.50;;;8.60;;
1747;SDS011;871;47.034;15.394;2023-02-11T11:31:29;49.40;;;9.97;;
1747;SDS011;871;47.034;15.394;2023-02-11T11:33:57;50.90;;;11.37;;
1747;SDS011;871;47.034;15.394;2023-02-11T11:36:33;45.60;;;9.70;;
1747;SDS011;871;47.034;15.394;2023-02-11T11:39:01;47.70;;;9.90;;
1747;SDS011;871;47.034;15.394;2023-02-11T11:41:29;52.93;;;9.57;;
1747;SDS011;871;47.034;15.394;2023-02-11T11:43:57;50.28;;;9.60;;
1747;SDS011;871;47.034;15.394;2023-02-11T11:46:31;47.10;;;9.80;;
1747;SDS011;871;47.034;15.394;2023-02-11T11:49:00;46.50;;;9.13;;
1747;SDS011;871;47.034;15.394;2023-02-11T11:51:28;45.97;;;8.73;;
1747;SDS011;871;47.034;15.394;2023-02-11T11:54:05;45.17;;;9.17;;
1747;SDS011;871;47.034;15.394;2023-02-11T11:56:34;45.90;;;9.70;;
1747;SDS011;871;47.034;15.394;2023-02-11T11:59:05;46.60;;;8.57;;
1747;SDS011;871;47.034;15.394;2023-02-11T12:01:44;44.63;;;7.97;;
1747;SDS011;871;47.034;15.394;2023-02-11T12:12:12;47.50;;;9.80;;
1747;SDS011;871;47.034;15.394;2023-02-11T12:17:36;47.97;;;8.70;;
1747;SDS011;871;47.034;15.394;2023-02-11T12:27:49;51.83;;;10.20;;
1747;SDS011;871;47.034;15.394;2023-02-11T12:38:16;47.63;;;9.00;;
1747;SDS011;871;47.034;15.394;2023-02-11T12:43:37;49.40;;;10.87;;
1747;SDS011;871;47.034;15.394;2023-02-11T13:02:52;54.40;;;11.53;;
1747;SDS011;871;47.034;15.394;2023-02-11T13:04:58;49.80;;;9.67;;
1747;SDS011;871;47.034;15.394;2023-02-11T13:07:27;48.10;;;8.57;;
1747;SDS011;871;47.034;15.394;2023-02-11T13:09:58;52.37;;;8.53;;
1747;SDS011;871;47.034;15.394;2023-02-11T13:12:27;47.40;;;9.10;;
1747;SDS011;871;47.034;15.394;2023-02-11T13:15:13;47.83;;;10.10;;
1747;SDS011;871;47.034;15.394;2023-02-11T13:17:47;51.07;;;10.47;;
1747;SDS011;871;47.034;15.394;2023-02-11T13:28:19;44.40;;;7.80;;
1747;SDS011;871;47.034;15.394;2023-02-11T13:30:46;46.37;;;7.53;;
1747;SDS011;871;47.034;15.394;2023-02-11T13:33:31;44.57;;;7.90;;
1747;SDS011;871;47.034;15.394;2023-02-11T13:38:24;47.27;;;7.60;;
1747;SDS011;871;47.034;15.394;2023-02-11T13:43:37;45.50;;;8.37;;
1747;SDS011;871;47.034;15.394;2023-02-11T13:46:08;48.03;;;7.90;;
1747;SDS011;871;47.034;15.394;2023-02-11T13:48:44;46.90;;;8.40;;
1747;SDS011;871;47.034;15.394;2023-02-11T13:51:11;49.70;;;9.33;;
1747;SDS011;871;47.034;15.394;2023-02-11T13:53:59;48.10;;;8.53;;
1747;SDS011;871;47.034;15.394;2023-02-11T13:56:28;44.87;;;8.97;;
1747;SDS011;871;47.034;15.394;2023-02-11T13:58:55;44.33;;;8.10;;
1747;SDS011;871;47.034;15.394;2023-02-11T14:01:38;45.07;;;8.27;;
1747;SDS011;871;47.034;15.394;2023-02-11T14:04:19;43.40;;;6.60;;
1747;SDS011;871;47.034;15.394;2023-02-11T14:10:05;43.87;;;6.80;;
1747;SDS011;871;47.034;15.394;2023-02-11T14:15:39;42.30;;;6.20;;
1747;SDS011;871;47.034;15.394;2023-02-11T14:21:17;41.20;;;6.00;;
1747;SDS011;871;47.034;15.394;2023-02-11T14:23:44;41.93;;;5.30;;
1747;SDS011;871;47.034;15.394;2023-02-11T14:28:47;43.53;;;5.80;;
1747;SDS011;871;47.034;15.394;2023-02-11T14:31:20;44.63;;;6.10;;
1747;SDS011;871;47.034;15.394;2023-02-11T14:33:52;43.33;;;6.77;;
1747;SDS011;871;47.034;15.394;2023-02-11T14:41:22;40.93;;;5.40;;
1747;SDS011;871;47.034;15.394;2023-02-11T14:43:52;40.50;;;5.17;;
1747;SDS011;871;47.034;15.394;2023-02-11T14:46:20;39.60;;;5.27;;
1747;SDS011;871;47.034;15.394;2023-02-11T14:48:47;46.50;;;9.03;;
1747;SDS011;871;47.034;15.394;2023-02-11T14:53:54;42.57;;;5.77;;
1747;SDS011;871;47.034;15.394;2023-02-11T14:56:26;41.57;;;5.13;;
1747;SDS011;871;47.034;15.394;2023-02-11T14:58:55;43.67;;;5.80;;
1747;SDS011;871;47.034;15.394;2023-02-11T15:01:32;40.40;;;5.30;;
1747;SDS011;871;47.034;15.394;2023-02-11T15:04:01;43.93;;;5.70;;
1747;SDS011;871;47.034;15.394;2023-02-11T15:06:32;42.57;;;6.27;;
1747;SDS011;871;47.034;15.394;2023-02-11T15:09:02;42.50;;;5.90;;
1747;SDS011;871;47.034;15.394;2023-02-11T15:11:33;42.10;;;6.00;;
1747;SDS011;871;47.034;15.394;2023-02-11T15:14:10;42.13;;;5.97;;
1747;SDS011;871;47.034;15.394;2023-02-11T15:16:40;42.97;;;6.40;;
1747;SDS011;871;47.034;15.394;2023-02-11T15:19:10;41.70;;;6.07;;
1747;SDS011;871;47.034;15.394;2023-02-11T15:21:41;41.80;;;6.77;;
1747;SDS011;871;47.034;15.394;2023-02-11T15:24:28;42.77;;;6.87;;
1747;SDS011;871;47.034;15.394;2023-02-11T15:26:59;43.00;;;5.70;;
1747;SDS011;871;47.034;15.394;2023-02-11T15:29:36;43.87;;;6.60;;
1747;SDS011;871;47.034;15.394;2023-02-11T15:34:34;43.17;;;6.70;;
1747;SDS011;871;47.034;15.394;2023-02-11T15:37:02;49.40;;;8.43;;
1747;SDS011;871;47.034;15.394;2023-02-11T15:39:30;46.07;;;8.00;;
1747;SDS011;871;47.034;15.394;2023-02-11T15:42:14;47.97;;;7.50;;
1747;SDS011;871;47.034;15.394;2023-02-11T15:44:40;53.40;;;8.43;;
1747;SDS011;871;47.034;15.394;2023-02-11T15:47:10;52.37;;;8.37;;
1747;SDS011;871;47.034;15.394;2023-02-11T15:49:37;45.80;;;8.10;;
1747;SDS011;871;47.034;15.394;2023-02-11T15:52:04;46.40;;;7.63;;
1747;SDS011;871;47.034;15.394;2023-02-11T15:54:33;44.93;;;8.27;;
1747;SDS011;871;47.034;15.394;2023-02-11T15:57:01;46.80;;;7.83;;
1747;SDS011;871;47.034;15.394;2023-02-11T15:59:29;46.57;;;7.80;;
1747;SDS011;871;47.034;15.394;2023-02-11T16:01:57;46.17;;;8.57;;
1747;SDS011;871;47.034;15.394;2023-02-11T16:04:30;44.40;;;7.50;;
1747;SDS011;871;47.034;15.394;2023-02-11T16:06:56;43.80;;;6.87;;
1747;SDS011;871;47.034;15.394;2023-02-11T16:09:25;47.83;;;7.43;;
1747;SDS011;871;47.034;15.394;2023-02-11T16:11:56;54.53;;;7.33;;
1747;SDS011;871;47.034;15.394;2023-02-11T16:14:28;44.60;;;7.03;;
1747;SDS011;871;47.034;15.394;2023-02-11T16:16:55;46.03;;;8.00;;
1747;SDS011;871;47.034;15.394;2023-02-11T16:19:23;43.67;;;7.67;;
1747;SDS011;871;47.034;15.394;2023-02-11T16:21:50;50.30;;;9.53;;
1747;SDS011;871;47.034;15.394;2023-02-11T16:24:21;45.80;;;9.00;;
1747;SDS011;871;47.034;15.394;2023-02-11T16:26:50;45.30;;;8.10;;
1747;SDS011;871;47.034;15.394;2023-02-11T16:29:28;50.40;;;11.17;;
1747;SDS011;871;47.034;15.394;2023-02-11T16:34:51;49.83;;;9.37;;
1747;SDS011;871;47.034;15.394;2023-02-11T16:37:18;51.17;;;9.02;;
1747;SDS011;871;47.034;15.394;2023-02-11T16:39:44;46.80;;;7.67;;
1747;SDS011;871;47.034;15.394;2023-02-11T16:42:10;53.30;;;10.30;;
1747;SDS011;871;47.034;15.394;2023-02-11T16:44:37;49.00;;;10.07;;
1747;SDS011;871;47.034;15.394;2023-02-11T16:47:03;56.67;;;11.30;;
1747;SDS011;871;47.034;15.394;2023-02-11T16:49:33;56.22;;;11.95;;
1747;SDS011;871;47.034;15.394;2023-02-11T16:52:01;54.83;;;13.60;;
1747;SDS011;871;47.034;15.394;2023-02-11T16:54:30;62.63;;;17.10;;
1747;SDS011;871;47.034;15.394;2023-02-11T16:56:56;56.13;;;13.68;;
1747;SDS011;871;47.034;15.394;2023-02-11T16:59:22;68.63;;;15.55;;
1747;SDS011;871;47.034;15.394;2023-02-11T17:01:48;52.20;;;10.73;;
1747;SDS011;871;47.034;15.394;2023-02-11T17:04:16;44.90;;;8.57;;
1747;SDS011;871;47.034;15.394;2023-02-11T17:06:44;51.90;;;9.68;;
1747;SDS011;871;47.034;15.394;2023-02-11T17:09:16;51.28;;;10.05;;
1747;SDS011;871;47.034;15.394;2023-02-11T17:11:43;51.22;;;9.95;;
1747;SDS011;871;47.034;15.394;2023-02-11T17:14:09;58.17;;;13.40;;
1747;SDS011;871;47.034;15.394;2023-02-11T17:16:35;75.30;;;20.85;;
1747;SDS011;871;47.034;15.394;2023-02-11T17:19:01;65.10;;;19.13;;
1747;SDS011;871;47.034;15.394;2023-02-11T17:21:28;72.85;;;21.08;;
1747;SDS011;871;47.034;15.394;2023-02-11T17:23:58;85.80;;;24.30;;
1747;SDS011;871;47.034;15.394;2023-02-11T17:26:24;70.70;;;19.83;;
1747;SDS011;871;47.034;15.394;2023-02-11T17:28:51;63.40;;;15.15;;
1747;SDS011;871;47.034;15.394;2023-02-11T17:31:17;57.25;;;14.55;;
1747;SDS011;871;47.034;15.394;2023-02-11T17:33:43;60.13;;;14.93;;
1747;SDS011;871;47.034;15.394;2023-02-11T17:36:10;55.13;;;11.95;;
1747;SDS011;871;47.034;15.394;2023-02-11T17:38:36;54.13;;;10.27;;
1747;SDS011;871;47.034;15.394;2023-02-11T17:41:03;59.58;;;16.08;;
1747;SDS011;871;47.034;15.394;2023-02-11T17:43:31;53.95;;;11.40;;
1747;SDS011;871;47.034;15.394;2023-02-11T17:45:57;47.13;;;9.55;;
1747;SDS011;871;47.034;15.394;2023-02-11T17:48:23;45.63;;;7.72;;
1747;SDS011;871;47.034;15.394;2023-02-11T17:50:51;45.33;;;6.78;;
1747;SDS011;871;47.034;15.394;2023-02-11T17:53:17;44.70;;;7.43;;
1747;SDS011;871;47.034;15.394;2023-02-11T17:55:43;51.28;;;8.65;;
1747;SDS011;871;47.034;15.394;2023-02-11T17:58:10;51.35;;;10.48;;
1747;SDS011;871;47.034;15.394;2023-02-11T18:00:36;44.47;;;7.90;;
1747;SDS011;871;47.034;15.394;2023-02-11T18:03:02;46.17;;;8.68;;
1747;SDS011;871;47.034;15.394;2023-02-11T18:05:33;47.38;;;8.60;;
1747;SDS011;871;47.034;15.394;2023-02-11T18:07:59;47.35;;;8.63;;
1747;SDS011;871;47.034;15.394;2023-02-11T18:10:26;54.00;;;9.93;;
1747;SDS011;871;47.034;15.394;2023-02-11T18:12:52;52.40;;;9.70;;
1747;SDS011;871;47.034;15.394;2023-02-11T18:15:20;51.55;;;9.13;;
1747;SDS011;871;47.034;15.394;2023-02-11T18:17:47;48.45;;;9.63;;
1747;SDS011;871;47.034;15.394;2023-02-11T18:20:13;47.67;;;9.45;;
1747;SDS011;871;47.034;15.394;2023-02-11T18:22:39;49.47;;;9.40;;
1747;SDS011;871;47.034;15.394;2023-02-11T18:25:09;51.05;;;9.57;;
1747;SDS011;871;47.034;15.394;2023-02-11T18:27:36;48.05;;;9.57;;
1747;SDS011;871;47.034;15.394;2023-02-11T18:30:02;48.92;;;10.30;;
1747;SDS011;871;47.034;15.394;2023-02-11T18:32:30;48.75;;;9.43;;
1747;SDS011;871;47.034;15.394;2023-02-11T18:34:56;50.05;;;11.23;;
1747;SDS011;871;47.034;15.394;2023-02-11T18:37:23;48.92;;;10.52;;
1747;SDS011;871;47.034;15.394;2023-02-11T18:39:49;51.13;;;9.63;;
1747;SDS011;871;47.034;15.394;2023-02-11T18:42:15;53.10;;;10.05;;
1747;SDS011;871;47.034;15.394;2023-02-11T18:44:41;48.55;;;10.23;;
1747;SDS011;871;47.034;15.394;2023-02-11T18:47:08;53.67;;;10.25;;
1747;SDS011;871;47.034;15.394;2023-02-11T18:49:34;51.38;;;10.35;;
1747;SDS011;871;47.034;15.394;2023-02-11T18:52:00;56.45;;;12.15;;
1747;SDS011;871;47.034;15.394;2023-02-11T18:54:26;49.95;;;10.68;;
1747;SDS011;871;47.034;15.394;2023-02-11T18:56:53;52.10;;;11.77;;
1747;SDS011;871;47.034;15.394;2023-02-11T18:59:19;51.58;;;11.60;;
1747;SDS011;871;47.034;15.394;2023-02-11T19:01:45;53.80;;;11.75;;
1747;SDS011;871;47.034;15.394;2023-02-11T19:04:13;52.63;;;11.30;;
1747;SDS011;871;47.034;15.394;2023-02-11T19:06:45;52.88;;;11.60;;
1747;SDS011;871;47.034;15.394;2023-02-11T19:09:13;49.75;;;10.90;;
1747;SDS011;871;47.034;15.394;2023-02-11T19:11:40;63.25;;;16.55;;
1747;SDS011;871;47.034;15.394;2023-02-11T19:14:22;78.20;;;21.15;;
1747;SDS011;871;47.034;15.394;2023-02-11T19:16:49;87.10;;;18.50;;
1747;SDS011;871;47.034;15.394;2023-02-11T19:19:17;65.55;;;13.75;;
1747;SDS011;871;47.034;15.394;2023-02-11T19:21:46;55.92;;;14.45;;
1747;SDS011;871;47.034;15.394;2023-02-11T19:24:15;65.60;;;13.32;;
1747;SDS011;871;47.034;15.394;2023-02-11T19:26:44;56.22;;;12.18;;
1747;SDS011;871;47.034;15.394;2023-02-11T19:29:11;50.17;;;13.50;;
1747;SDS011;871;47.034;15.394;2023-02-11T19:31:38;56.60;;;12.93;;
1747;SDS011;871;47.034;15.394;2023-02-11T19:34:04;58.03;;;13.07;;
1747;SDS011;871;47.034;15.394;2023-02-11T19:36:34;61.38;;;13.40;;
1747;SDS011;871;47.034;15.394;2023-02-11T19:39:01;61.38;;;16.40;;
1747;SDS011;871;47.034;15.394;2023-02-11T19:41:28;61.90;;;15.40;;
1747;SDS011;871;47.034;15.394;2023-02-11T19:43:54;56.30;;;15.10;;
1747;SDS011;871;47.034;15.394;2023-02-11T19:46:24;66.60;;;18.08;;
1747;SDS011;871;47.034;15.394;2023-02-11T19:48:51;61.25;;;15.07;;
1747;SDS011;871;47.034;15.394;2023-02-11T19:51:18;54.15;;;13.40;;
1747;SDS011;871;47.034;15.394;2023-02-11T19:53:46;60.10;;;16.17;;
1747;SDS011;871;47.034;15.394;2023-02-11T19:56:13;58.47;;;15.60;;
1747;SDS011;871;47.034;15.394;2023-02-11T19:58:39;54.97;;;14.00;;
1747;SDS011;871;47.034;15.394;2023-02-11T20:01:07;56.22;;;15.57;;
1747;SDS011;871;47.034;15.394;2023-02-11T20:03:34;58.88;;;15.70;;
1747;SDS011;871;47.034;15.394;2023-02-11T20:06:07;60.97;;;15.77;;
1747;SDS011;871;47.034;15.394;2023-02-11T20:08:34;60.40;;;14.05;;
1747;SDS011;871;47.034;15.394;2023-02-11T20:11:04;58.88;;;17.00;;
1747;SDS011;871;47.034;15.394;2023-02-11T20:13:30;59.67;;;15.13;;
1747;SDS011;871;47.034;15.394;2023-02-11T20:16:08;59.38;;;14.40;;
1747;SDS011;871;47.034;15.394;2023-02-11T20:18:34;59.08;;;15.80;;
1747;SDS011;871;47.034;15.394;2023-02-11T20:23:34;57.70;;;14.00;;
1747;SDS011;871;47.034;15.394;2023-02-11T20:26:04;56.42;;;14.05;;
1747;SDS011;871;47.034;15.394;2023-02-11T20:28:31;64.78;;;14.50;;
1747;SDS011;871;47.034;15.394;2023-02-11T20:30:57;50.10;;;13.15;;
1747;SDS011;871;47.034;15.394;2023-02-11T20:33:24;53.92;;;10.90;;
1747;SDS011;871;47.034;15.394;2023-02-11T20:35:57;50.30;;;11.50;;
1747;SDS011;871;47.034;15.394;2023-02-11T20:38:24;55.00;;;12.82;;
1747;SDS011;871;47.034;15.394;2023-02-11T20:40:50;54.25;;;12.13;;
1747;SDS011;871;47.034;15.394;2023-02-11T20:43:17;54.58;;;12.98;;
1747;SDS011;871;47.034;15.394;2023-02-11T20:45:44;50.33;;;11.73;;
1747;SDS011;871;47.034;15.394;2023-02-11T20:48:11;59.45;;;12.15;;
1747;SDS011;871;47.034;15.394;2023-02-11T20:50:39;58.15;;;13.65;;
1747;SDS011;871;47.034;15.394;2023-02-11T20:53:05;54.15;;;14.00;;
1747;SDS011;871;47.034;15.394;2023-02-11T20:55:35;54.70;;;11.55;;
1747;SDS011;871;47.034;15.394;2023-02-11T20:58:02;53.90;;;11.95;;
1747;SDS011;871;47.034;15.394;2023-02-11T21:00:28;63.75;;;15.02;;
1747;SDS011;871;47.034;15.394;2023-02-11T21:02:56;60.45;;;13.73;;
1747;SDS011;871;47.034;15.394;2023-02-11T21:05:22;55.03;;;12.85;;
1747;SDS011;871;47.034;15.394;2023-02-11T21:07:49;57.40;;;13.15;;
1747;SDS011;871;47.034;15.394;2023-02-11T21:10:16;57.00;;;14.63;;
1747;SDS011;871;47.034;15.394;2023-02-11T21:12:43;61.00;;;14.80;;
1747;SDS011;871;47.034;15.394;2023-02-11T21:15:11;55.97;;;12.55;;
1747;SDS011;871;47.034;15.394;2023-02-11T21:17:37;49.22;;;10.80;;
1747;SDS011;871;47.034;15.394;2023-02-11T21:20:03;59.90;;;12.80;;
1747;SDS011;871;47.034;15.394;2023-02-11T21:22:30;60.22;;;17.05;;
1747;SDS011;871;47.034;15.394;2023-02-11T21:24:56;54.17;;;15.40;;
1747;SDS011;871;47.034;15.394;2023-02-11T21:27:22;62.88;;;14.50;;
1747;SDS011;871;47.034;15.394;2023-02-11T21:29:55;66.32;;;14.25;;
1747;SDS011;871;47.034;15.394;2023-02-11T21:32:21;51.00;;;12.02;;
1747;SDS011;871;47.034;15.394;2023-02-11T21:34:47;56.20;;;12.57;;
1747;SDS011;871;47.034;15.394;2023-02-11T21:37:14;56.03;;;12.77;;
1747;SDS011;871;47.034;15.394;2023-02-11T21:39:40;56.50;;;13.70;;
1747;SDS011;871;47.034;15.394;2023-02-11T21:42:07;60.78;;;15.93;;
1747;SDS011;871;47.034;15.394;2023-02-11T21:44:33;57.33;;;16.52;;
1747;SDS011;871;47.034;15.394;2023-02-11T21:47:00;56.80;;;15.57;;
1747;SDS011;871;47.034;15.394;2023-02-11T21:49:26;56.55;;;15.00;;
1747;SDS011;871;47.034;15.394;2023-02-11T21:51:53;55.20;;;15.05;;
1747;SDS011;871;47.034;15.394;2023-02-11T21:54:19;51.30;;;13.10;;
1747;SDS011;871;47.034;15.394;2023-02-11T21:56:48;57.03;;;14.38;;
